sensor_id;sensor_type;location;lat;lon;timestamp;P1;durP1;ratioP1;P2;durP2;ratioP2
10721;SDS011;5412;59.450;18.124;2023-09-07T00:01:29;3.60;;;1.50;;
10721;SDS011;5412;59.450;18.124;2023-09-07T00:03:55;3.42;;;1.45;;
10721;SDS011;5412;59.450;18.124;2023-09-07T00:06:21;4.40;;;1.27;;
10721;SDS011;5412;59.450;18.124;2023-09-07T00:08:47;3.60;;;1.63;;
10721;SDS011;5412;59.450;18.124;2023-09-07T00:11:12;1.55;;;1.00;;
10721;SDS011;5412;59.450;18.124;2023-09-07T00:13:38;2.55;;;1.45;;
10721;SDS011;5412;59.450;18.124;2023-09-07T00:16:04;1.42;;;1.10;;
10721;SDS011;5412;59.450;18.124;2023-09-07T00:18:31;4.10;;;1.52;;
10721;SDS011;5412;59.450;18.124;2023-09-07T00:20:58;2.75;;;1.25;;
10721;SDS011;5412;59.450;18.124;2023-09-07T00:23:25;6.28;;;1.52;;
10721;SDS011;5412;59.450;18.124;2023-09-07T00:25:50;1.55;;;1.25;;
10721;SDS011;5412;59.450;18.124;2023-09-07T00:28:16;2.80;;;1.48;;
10721;SDS011;5412;59.450;18.124;2023-09-07T00:30:42;4.15;;;1.20;;
10721;SDS011;5412;59.450;18.124;2023-09-07T00:33:08;5.82;;;1.40;;
10721;SDS011;5412;59.450;18.124;2023-09-07T00:35:34;74.70;;;39.80;;
10721;SDS011;5412;59.450;18.124;2023-09-07T00:38:00;60.92;;;33.55;;
10721;SDS011;5412;59.450;18.124;2023-09-07T00:40:26;30.15;;;15.80;;
10721;SDS011;5412;59.450;18.124;2023-09-07T00:42:52;2.47;;;1.77;;
10721;SDS011;5412;59.450;18.124;2023-09-07T00:45:18;5.35;;;1.70;;
10721;SDS011;5412;59.450;18.124;2023-09-07T00:47:44;4.18;;;1.55;;
10721;SDS011;5412;59.450;18.124;2023-09-07T00:50:10;17.83;;;8.63;;
10721;SDS011;5412;59.450;18.124;2023-09-07T00:52:39;37.88;;;21.38;;
10721;SDS011;5412;59.450;18.124;2023-09-07T00:55:08;34.85;;;21.00;;
10721;SDS011;5412;59.450;18.124;2023-09-07T00:57:35;12.93;;;5.85;;
10721;SDS011;5412;59.450;18.124;2023-09-07T01:00:02;23.83;;;12.88;;
10721;SDS011;5412;59.450;18.124;2023-09-07T01:02:32;3.35;;;2.03;;
10721;SDS011;5412;59.450;18.124;2023-09-07T01:04:58;4.80;;;2.20;;
10721;SDS011;5412;59.450;18.124;2023-09-07T01:07:25;3.05;;;2.33;;
10721;SDS011;5412;59.450;18.124;2023-09-07T01:09:57;2.50;;;1.88;;
10721;SDS011;5412;59.450;18.124;2023-09-07T01:12:26;4.65;;;2.30;;
10721;SDS011;5412;59.450;18.124;2023-09-07T01:14:52;6.75;;;1.77;;
10721;SDS011;5412;59.450;18.124;2023-09-07T01:17:18;3.80;;;1.50;;
10721;SDS011;5412;59.450;18.124;2023-09-07T01:19:46;3.70;;;1.70;;
10721;SDS011;5412;59.450;18.124;2023-09-07T01:22:15;5.18;;;1.63;;
10721;SDS011;5412;59.450;18.124;2023-09-07T01:24:47;4.72;;;1.98;;
10721;SDS011;5412;59.450;18.124;2023-09-07T01:27:15;1.67;;;1.50;;
10721;SDS011;5412;59.450;18.124;2023-09-07T01:29:41;9.38;;;1.67;;
10721;SDS011;5412;59.450;18.124;2023-09-07T01:32:07;3.60;;;1.75;;
10721;SDS011;5412;59.450;18.124;2023-09-07T01:34:35;1.30;;;1.20;;
10721;SDS011;5412;59.450;18.124;2023-09-07T01:37:01;2.33;;;1.55;;
10721;SDS011;5412;59.450;18.124;2023-09-07T01:39:26;4.25;;;1.85;;
10721;SDS011;5412;59.450;18.124;2023-09-07T01:41:52;2.83;;;1.40;;
10721;SDS011;5412;59.450;18.124;2023-09-07T01:44:18;10.73;;;5.68;;
10721;SDS011;5412;59.450;18.124;2023-09-07T01:46:44;16.25;;;9.02;;
10721;SDS011;5412;59.450;18.124;2023-09-07T01:49:10;19.98;;;10.88;;
10721;SDS011;5412;59.450;18.124;2023-09-07T01:51:35;24.00;;;12.52;;
10721;SDS011;5412;59.450;18.124;2023-09-07T01:54:01;8.82;;;5.25;;
10721;SDS011;5412;59.450;18.124;2023-09-07T01:56:27;12.90;;;6.60;;
10721;SDS011;5412;59.450;18.124;2023-09-07T01:58:53;12.65;;;6.95;;
10721;SDS011;5412;59.450;18.124;2023-09-07T02:01:25;19.85;;;10.90;;
10721;SDS011;5412;59.450;18.124;2023-09-07T02:04:01;4.95;;;1.58;;
10721;SDS011;5412;59.450;18.124;2023-09-07T02:06:27;2.28;;;1.60;;
10721;SDS011;5412;59.450;18.124;2023-09-07T02:08:53;2.90;;;1.42;;
10721;SDS011;5412;59.450;18.124;2023-09-07T02:11:19;2.53;;;1.30;;
10721;SDS011;5412;59.450;18.124;2023-09-07T02:13:46;3.22;;;1.35;;
10721;SDS011;5412;59.450;18.124;2023-09-07T02:16:12;2.80;;;1.30;;
10721;SDS011;5412;59.450;18.124;2023-09-07T02:18:38;4.68;;;1.52;;
10721;SDS011;5412;59.450;18.124;2023-09-07T02:21:08;15.88;;;9.07;;
10721;SDS011;5412;59.450;18.124;2023-09-07T02:23:34;34.30;;;18.25;;
10721;SDS011;5412;59.450;18.124;2023-09-07T02:26:02;21.88;;;12.48;;
10721;SDS011;5412;59.450;18.124;2023-09-07T02:28:29;27.05;;;15.25;;
10721;SDS011;5412;59.450;18.124;2023-09-07T02:30:54;53.50;;;29.77;;
10721;SDS011;5412;59.450;18.124;2023-09-07T02:33:27;42.88;;;22.75;;
10721;SDS011;5412;59.450;18.124;2023-09-07T02:35:53;14.23;;;7.85;;
10721;SDS011;5412;59.450;18.124;2023-09-07T02:38:19;30.83;;;15.95;;
10721;SDS011;5412;59.450;18.124;2023-09-07T02:40:45;20.15;;;10.77;;
10721;SDS011;5412;59.450;18.124;2023-09-07T02:43:10;8.18;;;4.18;;
10721;SDS011;5412;59.450;18.124;2023-09-07T02:45:36;6.13;;;3.00;;
10721;SDS011;5412;59.450;18.124;2023-09-07T02:48:03;5.93;;;1.48;;
10721;SDS011;5412;59.450;18.124;2023-09-07T02:50:31;3.85;;;1.30;;
10721;SDS011;5412;59.450;18.124;2023-09-07T02:53:01;4.78;;;1.30;;
10721;SDS011;5412;59.450;18.124;2023-09-07T02:55:29;1.80;;;1.13;;
10721;SDS011;5412;59.450;18.124;2023-09-07T02:57:57;4.55;;;1.42;;
10721;SDS011;5412;59.450;18.124;2023-09-07T03:00:24;4.65;;;1.58;;
10721;SDS011;5412;59.450;18.124;2023-09-07T03:02:51;2.75;;;1.23;;
10721;SDS011;5412;59.450;18.124;2023-09-07T03:05:17;2.17;;;1.33;;
10721;SDS011;5412;59.450;18.124;2023-09-07T03:07:44;6.75;;;1.52;;
10721;SDS011;5412;59.450;18.124;2023-09-07T03:10:11;2.92;;;1.40;;
10721;SDS011;5412;59.450;18.124;2023-09-07T03:12:37;4.22;;;1.10;;
10721;SDS011;5412;59.450;18.124;2023-09-07T03:15:03;7.90;;;1.58;;
10721;SDS011;5412;59.450;18.124;2023-09-07T03:17:30;3.97;;;1.13;;
10721;SDS011;5412;59.450;18.124;2023-09-07T03:19:55;3.55;;;1.25;;
10721;SDS011;5412;59.450;18.124;2023-09-07T03:22:24;1.73;;;1.20;;
10721;SDS011;5412;59.450;18.124;2023-09-07T03:24:50;2.90;;;1.17;;
10721;SDS011;5412;59.450;18.124;2023-09-07T03:27:16;2.90;;;1.30;;
10721;SDS011;5412;59.450;18.124;2023-09-07T03:29:44;5.10;;;1.45;;
10721;SDS011;5412;59.450;18.124;2023-09-07T03:32:09;4.15;;;1.27;;
10721;SDS011;5412;59.450;18.124;2023-09-07T03:34:35;3.25;;;1.48;;
10721;SDS011;5412;59.450;18.124;2023-09-07T03:37:01;4.35;;;1.23;;
10721;SDS011;5412;59.450;18.124;2023-09-07T03:39:27;5.32;;;1.48;;
10721;SDS011;5412;59.450;18.124;2023-09-07T03:41:53;3.83;;;1.40;;
10721;SDS011;5412;59.450;18.124;2023-09-07T03:44:19;3.95;;;1.48;;
10721;SDS011;5412;59.450;18.124;2023-09-07T03:46:45;4.25;;;1.30;;
10721;SDS011;5412;59.450;18.124;2023-09-07T03:49:10;3.13;;;1.50;;
10721;SDS011;5412;59.450;18.124;2023-09-07T03:51:36;1.45;;;1.20;;
10721;SDS011;5412;59.450;18.124;2023-09-07T03:54:02;2.03;;;1.17;;
10721;SDS011;5412;59.450;18.124;2023-09-07T03:56:28;2.53;;;1.17;;
10721;SDS011;5412;59.450;18.124;2023-09-07T03:58:54;1.88;;;1.42;;
10721;SDS011;5412;59.450;18.124;2023-09-07T04:01:20;4.60;;;1.45;;
10721;SDS011;5412;59.450;18.124;2023-09-07T04:03:46;1.92;;;1.52;;
10721;SDS011;5412;59.450;18.124;2023-09-07T04:06:11;4.40;;;1.67;;
10721;SDS011;5412;59.450;18.124;2023-09-07T04:08:37;2.00;;;1.35;;
10721;SDS011;5412;59.450;18.124;2023-09-07T04:11:03;5.18;;;1.33;;
10721;SDS011;5412;59.450;18.124;2023-09-07T04:13:30;3.45;;;1.30;;
10721;SDS011;5412;59.450;18.124;2023-09-07T04:15:56;2.72;;;1.70;;
10721;SDS011;5412;59.450;18.124;2023-09-07T04:18:22;3.95;;;1.60;;
10721;SDS011;5412;59.450;18.124;2023-09-07T04:20:47;1.83;;;1.48;;
10721;SDS011;5412;59.450;18.124;2023-09-07T04:23:13;5.63;;;1.98;;
10721;SDS011;5412;59.450;18.124;2023-09-07T04:25:39;3.78;;;1.50;;
10721;SDS011;5412;59.450;18.124;2023-09-07T04:28:08;2.88;;;1.52;;
10721;SDS011;5412;59.450;18.124;2023-09-07T04:30:37;6.88;;;1.50;;
10721;SDS011;5412;59.450;18.124;2023-09-07T04:33:03;5.40;;;1.58;;
10721;SDS011;5412;59.450;18.124;2023-09-07T04:35:29;3.75;;;1.35;;
10721;SDS011;5412;59.450;18.124;2023-09-07T04:37:56;1.92;;;1.05;;
10721;SDS011;5412;59.450;18.124;2023-09-07T04:40:22;2.72;;;1.40;;
10721;SDS011;5412;59.450;18.124;2023-09-07T04:42:49;3.03;;;1.60;;
10721;SDS011;5412;59.450;18.124;2023-09-07T04:45:14;4.80;;;1.50;;
10721;SDS011;5412;59.450;18.124;2023-09-07T04:47:41;2.35;;;1.40;;
10721;SDS011;5412;59.450;18.124;2023-09-07T04:50:09;2.85;;;1.20;;
10721;SDS011;5412;59.450;18.124;2023-09-07T04:52:35;2.45;;;1.45;;
10721;SDS011;5412;59.450;18.124;2023-09-07T04:55:01;5.85;;;1.63;;
10721;SDS011;5412;59.450;18.124;2023-09-07T04:57:27;5.47;;;1.80;;
10721;SDS011;5412;59.450;18.124;2023-09-07T04:59:54;2.95;;;1.40;;
10721;SDS011;5412;59.450;18.124;2023-09-07T05:02:20;2.05;;;1.60;;
10721;SDS011;5412;59.450;18.124;2023-09-07T05:04:46;5.03;;;1.60;;
10721;SDS011;5412;59.450;18.124;2023-09-07T05:07:11;2.97;;;1.52;;
10721;SDS011;5412;59.450;18.124;2023-09-07T05:09:37;5.88;;;1.58;;
10721;SDS011;5412;59.450;18.124;2023-09-07T05:12:03;3.45;;;1.50;;
10721;SDS011;5412;59.450;18.124;2023-09-07T05:14:29;4.20;;;1.60;;
10721;SDS011;5412;59.450;18.124;2023-09-07T05:16:55;2.92;;;1.50;;
10721;SDS011;5412;59.450;18.124;2023-09-07T05:19:21;7.13;;;1.75;;
10721;SDS011;5412;59.450;18.124;2023-09-07T05:21:48;4.75;;;1.60;;
10721;SDS011;5412;59.450;18.124;2023-09-07T05:24:13;3.25;;;1.30;;
10721;SDS011;5412;59.450;18.124;2023-09-07T05:26:41;7.80;;;1.58;;
10721;SDS011;5412;59.450;18.124;2023-09-07T05:29:07;2.58;;;1.30;;
10721;SDS011;5412;59.450;18.124;2023-09-07T05:31:33;2.15;;;1.35;;
10721;SDS011;5412;59.450;18.124;2023-09-07T05:33:58;2.30;;;1.38;;
10721;SDS011;5412;59.450;18.124;2023-09-07T05:36:26;2.80;;;1.65;;
10721;SDS011;5412;59.450;18.124;2023-09-07T05:38:52;3.63;;;1.52;;
10721;SDS011;5412;59.450;18.124;2023-09-07T05:41:18;3.00;;;1.52;;
10721;SDS011;5412;59.450;18.124;2023-09-07T05:43:44;2.50;;;1.70;;
10721;SDS011;5412;59.450;18.124;2023-09-07T05:46:10;3.05;;;1.10;;
10721;SDS011;5412;59.450;18.124;2023-09-07T05:48:35;4.22;;;1.67;;
10721;SDS011;5412;59.450;18.124;2023-09-07T05:51:01;3.20;;;1.50;;
10721;SDS011;5412;59.450;18.124;2023-09-07T05:53:27;3.20;;;1.58;;
10721;SDS011;5412;59.450;18.124;2023-09-07T05:55:53;3.75;;;1.42;;
10721;SDS011;5412;59.450;18.124;2023-09-07T05:58:18;5.47;;;1.80;;
10721;SDS011;5412;59.450;18.124;2023-09-07T06:00:44;4.15;;;1.33;;
10721;SDS011;5412;59.450;18.124;2023-09-07T06:03:10;3.75;;;1.55;;
10721;SDS011;5412;59.450;18.124;2023-09-07T06:05:36;2.05;;;1.20;;
10721;SDS011;5412;59.450;18.124;2023-09-07T06:08:03;4.97;;;1.70;;
10721;SDS011;5412;59.450;18.124;2023-09-07T06:10:31;5.85;;;2.30;;
10721;SDS011;5412;59.450;18.124;2023-09-07T06:12:57;1.80;;;1.40;;
10721;SDS011;5412;59.450;18.124;2023-09-07T06:15:23;3.95;;;1.33;;
10721;SDS011;5412;59.450;18.124;2023-09-07T06:17:49;1.92;;;1.55;;
10721;SDS011;5412;59.450;18.124;2023-09-07T06:20:15;2.47;;;1.42;;
10721;SDS011;5412;59.450;18.124;2023-09-07T06:22:40;3.70;;;1.55;;
10721;SDS011;5412;59.450;18.124;2023-09-07T06:25:06;2.17;;;1.40;;
10721;SDS011;5412;59.450;18.124;2023-09-07T06:27:32;3.63;;;1.60;;
10721;SDS011;5412;59.450;18.124;2023-09-07T06:29:58;3.47;;;1.50;;
10721;SDS011;5412;59.450;18.124;2023-09-07T06:32:24;3.33;;;1.50;;
10721;SDS011;5412;59.450;18.124;2023-09-07T06:34:49;3.85;;;1.63;;
10721;SDS011;5412;59.450;18.124;2023-09-07T06:37:16;5.03;;;1.45;;
10721;SDS011;5412;59.450;18.124;2023-09-07T06:39:42;4.07;;;1.38;;
10721;SDS011;5412;59.450;18.124;2023-09-07T06:42:08;2.95;;;1.48;;
10721;SDS011;5412;59.450;18.124;2023-09-07T06:44:35;3.03;;;1.63;;
10721;SDS011;5412;59.450;18.124;2023-09-07T06:47:01;3.15;;;1.55;;
10721;SDS011;5412;59.450;18.124;2023-09-07T06:49:27;3.20;;;1.50;;
10721;SDS011;5412;59.450;18.124;2023-09-07T06:51:54;2.50;;;1.50;;
10721;SDS011;5412;59.450;18.124;2023-09-07T06:54:21;2.90;;;1.45;;
10721;SDS011;5412;59.450;18.124;2023-09-07T06:56:47;2.45;;;1.33;;
10721;SDS011;5412;59.450;18.124;2023-09-07T06:59:13;1.52;;;1.27;;
10721;SDS011;5412;59.450;18.124;2023-09-07T07:01:39;3.47;;;1.70;;
10721;SDS011;5412;59.450;18.124;2023-09-07T07:04:05;2.20;;;1.35;;
10721;SDS011;5412;59.450;18.124;2023-09-07T07:06:31;3.47;;;1.30;;
10721;SDS011;5412;59.450;18.124;2023-09-07T07:08:57;8.05;;;1.38;;
10721;SDS011;5412;59.450;18.124;2023-09-07T07:11:23;3.70;;;1.90;;
10721;SDS011;5412;59.450;18.124;2023-09-07T07:13:48;4.93;;;1.90;;
10721;SDS011;5412;59.450;18.124;2023-09-07T07:16:15;3.35;;;1.27;;
10721;SDS011;5412;59.450;18.124;2023-09-07T07:18:41;1.73;;;1.27;;
10721;SDS011;5412;59.450;18.124;2023-09-07T07:21:07;4.57;;;1.50;;
10721;SDS011;5412;59.450;18.124;2023-09-07T07:23:34;1.60;;;1.33;;
10721;SDS011;5412;59.450;18.124;2023-09-07T07:26:00;2.03;;;1.40;;
10721;SDS011;5412;59.450;18.124;2023-09-07T07:28:25;2.60;;;1.48;;
10721;SDS011;5412;59.450;18.124;2023-09-07T07:30:51;5.18;;;1.38;;
10721;SDS011;5412;59.450;18.124;2023-09-07T07:33:18;3.03;;;1.42;;
10721;SDS011;5412;59.450;18.124;2023-09-07T07:35:45;5.28;;;1.48;;
10721;SDS011;5412;59.450;18.124;2023-09-07T07:38:11;4.07;;;1.40;;
10721;SDS011;5412;59.450;18.124;2023-09-07T07:40:38;3.05;;;1.13;;
10721;SDS011;5412;59.450;18.124;2023-09-07T07:43:04;2.08;;;1.40;;
10721;SDS011;5412;59.450;18.124;2023-09-07T07:45:31;6.25;;;1.80;;
10721;SDS011;5412;59.450;18.124;2023-09-07T07:48:01;4.10;;;1.30;;
10721;SDS011;5412;59.450;18.124;2023-09-07T07:50:27;4.38;;;1.33;;
10721;SDS011;5412;59.450;18.124;2023-09-07T07:52:53;2.22;;;1.63;;
10721;SDS011;5412;59.450;18.124;2023-09-07T07:55:18;8.10;;;1.42;;
10721;SDS011;5412;59.450;18.124;2023-09-07T07:57:44;2.80;;;1.10;;
10721;SDS011;5412;59.450;18.124;2023-09-07T08:00:10;1.88;;;1.27;;
10721;SDS011;5412;59.450;18.124;2023-09-07T08:02:36;3.58;;;1.40;;
10721;SDS011;5412;59.450;18.124;2023-09-07T08:05:03;4.63;;;1.60;;
10721;SDS011;5412;59.450;18.124;2023-09-07T08:07:29;3.17;;;1.20;;
10721;SDS011;5412;59.450;18.124;2023-09-07T08:09:55;2.33;;;1.45;;
10721;SDS011;5412;59.450;18.124;2023-09-07T08:12:20;1.95;;;1.27;;
10721;SDS011;5412;59.450;18.124;2023-09-07T08:14:46;2.38;;;1.02;;
10721;SDS011;5412;59.450;18.124;2023-09-07T08:17:12;2.25;;;1.15;;
10721;SDS011;5412;59.450;18.124;2023-09-07T08:19:37;4.10;;;1.30;;
10721;SDS011;5412;59.450;18.124;2023-09-07T08:22:04;2.28;;;1.30;;
10721;SDS011;5412;59.450;18.124;2023-09-07T08:24:30;2.53;;;1.35;;
10721;SDS011;5412;59.450;18.124;2023-09-07T08:26:56;4.25;;;1.48;;
10721;SDS011;5412;59.450;18.124;2023-09-07T08:29:23;3.17;;;1.20;;
10721;SDS011;5412;59.450;18.124;2023-09-07T08:31:54;1.30;;;1.17;;
10721;SDS011;5412;59.450;18.124;2023-09-07T08:34:20;1.98;;;1.30;;
10721;SDS011;5412;59.450;18.124;2023-09-07T08:36:47;3.35;;;1.15;;
10721;SDS011;5412;59.450;18.124;2023-09-07T08:39:15;1.83;;;1.23;;
10721;SDS011;5412;59.450;18.124;2023-09-07T08:41:42;2.17;;;1.40;;
10721;SDS011;5412;59.450;18.124;2023-09-07T08:44:14;2.63;;;1.08;;
10721;SDS011;5412;59.450;18.124;2023-09-07T08:46:41;3.15;;;1.20;;
10721;SDS011;5412;59.450;18.124;2023-09-07T08:49:08;3.25;;;1.30;;
10721;SDS011;5412;59.450;18.124;2023-09-07T08:51:34;1.73;;;1.02;;
10721;SDS011;5412;59.450;18.124;2023-09-07T08:54:04;1.27;;;1.08;;
10721;SDS011;5412;59.450;18.124;2023-09-07T08:56:32;3.42;;;1.20;;
10721;SDS011;5412;59.450;18.124;2023-09-07T08:58:58;1.65;;;0.90;;
10721;SDS011;5412;59.450;18.124;2023-09-07T09:01:24;1.95;;;1.10;;
10721;SDS011;5412;59.450;18.124;2023-09-07T09:03:50;1.35;;;1.02;;
10721;SDS011;5412;59.450;18.124;2023-09-07T09:06:16;1.13;;;1.02;;
10721;SDS011;5412;59.450;18.124;2023-09-07T09:08:44;3.65;;;1.30;;
10721;SDS011;5412;59.450;18.124;2023-09-07T09:11:14;1.48;;;1.10;;
10721;SDS011;5412;59.450;18.124;2023-09-07T09:13:41;7.82;;;1.20;;
10721;SDS011;5412;59.450;18.124;2023-09-07T09:16:07;2.10;;;1.10;;
10721;SDS011;5412;59.450;18.124;2023-09-07T09:18:34;3.38;;;1.30;;
10721;SDS011;5412;59.450;18.124;2023-09-07T09:20:59;1.70;;;1.20;;
10721;SDS011;5412;59.450;18.124;2023-09-07T09:25:57;1.77;;;1.00;;
10721;SDS011;5412;59.450;18.124;2023-09-07T09:28:25;4.40;;;1.40;;
10721;SDS011;5412;59.450;18.124;2023-09-07T09:30:51;1.58;;;1.15;;
10721;SDS011;5412;59.450;18.124;2023-09-07T09:33:19;1.83;;;1.45;;
10721;SDS011;5412;59.450;18.124;2023-09-07T09:35:46;1.77;;;1.00;;
10721;SDS011;5412;59.450;18.124;2023-09-07T09:38:12;2.30;;;1.02;;
10721;SDS011;5412;59.450;18.124;2023-09-07T09:40:38;1.52;;;1.10;;
10721;SDS011;5412;59.450;18.124;2023-09-07T09:43:04;2.40;;;1.30;;
10721;SDS011;5412;59.450;18.124;2023-09-07T09:45:31;2.22;;;1.48;;
10721;SDS011;5412;59.450;18.124;2023-09-07T09:47:58;1.73;;;1.20;;
10721;SDS011;5412;59.450;18.124;2023-09-07T09:50:27;3.03;;;1.30;;
10721;SDS011;5412;59.450;18.124;2023-09-07T09:52:56;1.42;;;1.27;;
10721;SDS011;5412;59.450;18.124;2023-09-07T09:55:23;1.88;;;1.13;;
10721;SDS011;5412;59.450;18.124;2023-09-07T09:57:49;2.83;;;1.30;;
10721;SDS011;5412;59.450;18.124;2023-09-07T10:00:15;1.35;;;1.25;;
10721;SDS011;5412;59.450;18.124;2023-09-07T10:03:04;1.30;;;1.13;;
10721;SDS011;5412;59.450;18.124;2023-09-07T10:05:35;1.90;;;1.30;;
10721;SDS011;5412;59.450;18.124;2023-09-07T10:08:13;1.80;;;1.20;;
10721;SDS011;5412;59.450;18.124;2023-09-07T10:10:43;2.38;;;1.30;;
10721;SDS011;5412;59.450;18.124;2023-09-07T10:13:13;1.77;;;1.30;;
10721;SDS011;5412;59.450;18.124;2023-09-07T10:15:39;2.63;;;1.27;;
10721;SDS011;5412;59.450;18.124;2023-09-07T10:18:13;3.00;;;1.55;;
10721;SDS011;5412;59.450;18.124;2023-09-07T10:23:23;2.13;;;1.58;;
10721;SDS011;5412;59.450;18.124;2023-09-07T10:26:09;1.67;;;1.45;;
10721;SDS011;5412;59.450;18.124;2023-09-07T10:28:39;2.50;;;1.45;;
10721;SDS011;5412;59.450;18.124;2023-09-07T10:31:06;1.92;;;1.25;;
10721;SDS011;5412;59.450;18.124;2023-09-07T10:33:38;1.30;;;1.20;;
10721;SDS011;5412;59.450;18.124;2023-09-07T10:36:05;2.65;;;1.70;;
10721;SDS011;5412;59.450;18.124;2023-09-07T10:38:32;4.45;;;1.80;;
10721;SDS011;5412;59.450;18.124;2023-09-07T10:40:59;4.00;;;1.50;;
10721;SDS011;5412;59.450;18.124;2023-09-07T10:43:27;3.78;;;1.50;;
10721;SDS011;5412;59.450;18.124;2023-09-07T10:45:55;1.58;;;1.30;;
10721;SDS011;5412;59.450;18.124;2023-09-07T10:48:25;2.85;;;1.65;;
10721;SDS011;5412;59.450;18.124;2023-09-07T10:50:53;3.38;;;1.40;;
10721;SDS011;5412;59.450;18.124;2023-09-07T10:53:29;2.53;;;1.55;;
10721;SDS011;5412;59.450;18.124;2023-09-07T10:55:59;1.80;;;1.40;;
10721;SDS011;5412;59.450;18.124;2023-09-07T10:58:30;2.40;;;1.30;;
10721;SDS011;5412;59.450;18.124;2023-09-07T11:00:57;2.15;;;1.40;;
10721;SDS011;5412;59.450;18.124;2023-09-07T11:03:27;2.85;;;1.27;;
10721;SDS011;5412;59.450;18.124;2023-09-07T11:05:59;1.75;;;1.48;;
10721;SDS011;5412;59.450;18.124;2023-09-07T11:08:36;1.52;;;1.40;;
10721;SDS011;5412;59.450;18.124;2023-09-07T11:11:02;2.47;;;1.52;;
10721;SDS011;5412;59.450;18.124;2023-09-07T11:13:28;3.85;;;1.45;;
10721;SDS011;5412;59.450;18.124;2023-09-07T11:15:55;2.83;;;1.42;;
10721;SDS011;5412;59.450;18.124;2023-09-07T11:18:22;1.63;;;1.38;;
10721;SDS011;5412;59.450;18.124;2023-09-07T11:20:49;2.10;;;1.45;;
10721;SDS011;5412;59.450;18.124;2023-09-07T11:23:19;4.55;;;1.83;;
10721;SDS011;5412;59.450;18.124;2023-09-07T11:25:46;1.80;;;1.48;;
10721;SDS011;5412;59.450;18.124;2023-09-07T11:28:14;5.65;;;1.80;;
10721;SDS011;5412;59.450;18.124;2023-09-07T11:30:49;2.42;;;1.48;;
10721;SDS011;5412;59.450;18.124;2023-09-07T11:33:16;2.22;;;1.60;;
10721;SDS011;5412;59.450;18.124;2023-09-07T11:35:42;3.20;;;1.90;;
10721;SDS011;5412;59.450;18.124;2023-09-07T11:38:08;4.93;;;1.60;;
10721;SDS011;5412;59.450;18.124;2023-09-07T11:40:37;2.00;;;1.75;;
10721;SDS011;5412;59.450;18.124;2023-09-07T11:43:03;3.50;;;1.38;;
10721;SDS011;5412;59.450;18.124;2023-09-07T11:45:28;2.05;;;1.50;;
10721;SDS011;5412;59.450;18.124;2023-09-07T11:47:54;3.03;;;1.73;;
10721;SDS011;5412;59.450;18.124;2023-09-07T11:50:22;3.15;;;1.92;;
10721;SDS011;5412;59.450;18.124;2023-09-07T11:52:49;2.67;;;1.90;;
10721;SDS011;5412;59.450;18.124;2023-09-07T11:55:16;2.15;;;1.55;;
10721;SDS011;5412;59.450;18.124;2023-09-07T11:57:41;2.28;;;1.63;;
10721;SDS011;5412;59.450;18.124;2023-09-07T12:00:08;2.20;;;1.70;;
10721;SDS011;5412;59.450;18.124;2023-09-07T12:02:38;3.03;;;1.58;;
10721;SDS011;5412;59.450;18.124;2023-09-07T12:05:04;1.60;;;1.40;;
10721;SDS011;5412;59.450;18.124;2023-09-07T12:07:32;5.05;;;1.75;;
10721;SDS011;5412;59.450;18.124;2023-09-07T12:09:59;3.63;;;1.42;;
10721;SDS011;5412;59.450;18.124;2023-09-07T12:12:24;3.15;;;2.17;;
10721;SDS011;5412;59.450;18.124;2023-09-07T12:14:50;2.40;;;1.50;;
10721;SDS011;5412;59.450;18.124;2023-09-07T12:17:16;2.03;;;1.40;;
10721;SDS011;5412;59.450;18.124;2023-09-07T12:19:41;4.28;;;1.73;;
10721;SDS011;5412;59.450;18.124;2023-09-07T12:22:10;3.38;;;1.60;;
10721;SDS011;5412;59.450;18.124;2023-09-07T12:24:36;1.70;;;1.38;;
10721;SDS011;5412;59.450;18.124;2023-09-07T12:27:02;2.70;;;1.35;;
10721;SDS011;5412;59.450;18.124;2023-09-07T12:29:28;1.55;;;0.95;;
10721;SDS011;5412;59.450;18.124;2023-09-07T12:31:57;1.50;;;1.00;;
10721;SDS011;5412;59.450;18.124;2023-09-07T12:34:23;1.52;;;1.05;;
10721;SDS011;5412;59.450;18.124;2023-09-07T12:36:50;2.83;;;1.30;;
10721;SDS011;5412;59.450;18.124;2023-09-07T12:39:16;3.47;;;1.05;;
10721;SDS011;5412;59.450;18.124;2023-09-07T12:41:44;1.77;;;1.10;;
10721;SDS011;5412;59.450;18.124;2023-09-07T12:44:10;2.35;;;1.20;;
10721;SDS011;5412;59.450;18.124;2023-09-07T12:46:36;1.77;;;1.00;;
10721;SDS011;5412;59.450;18.124;2023-09-07T12:49:02;5.10;;;1.70;;
10721;SDS011;5412;59.450;18.124;2023-09-07T12:51:29;4.15;;;1.15;;
10721;SDS011;5412;59.450;18.124;2023-09-07T12:53:55;1.83;;;0.93;;
10721;SDS011;5412;59.450;18.124;2023-09-07T12:56:21;3.63;;;1.17;;
10721;SDS011;5412;59.450;18.124;2023-09-07T12:58:47;1.52;;;0.90;;
10721;SDS011;5412;59.450;18.124;2023-09-07T13:01:12;1.50;;;1.05;;
10721;SDS011;5412;59.450;18.124;2023-09-07T13:03:40;1.63;;;1.10;;
10721;SDS011;5412;59.450;18.124;2023-09-07T13:06:06;4.80;;;1.30;;
10721;SDS011;5412;59.450;18.124;2023-09-07T13:08:32;4.75;;;1.30;;
10721;SDS011;5412;59.450;18.124;2023-09-07T13:10:58;1.85;;;1.45;;
10721;SDS011;5412;59.450;18.124;2023-09-07T13:13:24;3.13;;;1.30;;
10721;SDS011;5412;59.450;18.124;2023-09-07T13:15:54;3.40;;;1.20;;
10721;SDS011;5412;59.450;18.124;2023-09-07T13:18:20;3.78;;;0.93;;
10721;SDS011;5412;59.450;18.124;2023-09-07T13:20:47;3.10;;;1.10;;
10721;SDS011;5412;59.450;18.124;2023-09-07T13:23:15;2.22;;;1.17;;
10721;SDS011;5412;59.450;18.124;2023-09-07T13:25:43;1.92;;;1.30;;
10721;SDS011;5412;59.450;18.124;2023-09-07T13:28:09;2.03;;;1.17;;
10721;SDS011;5412;59.450;18.124;2023-09-07T13:30:34;1.85;;;1.45;;
10721;SDS011;5412;59.450;18.124;2023-09-07T13:33:00;2.50;;;1.20;;
10721;SDS011;5412;59.450;18.124;2023-09-07T13:35:26;1.73;;;1.20;;
10721;SDS011;5412;59.450;18.124;2023-09-07T13:37:52;7.97;;;1.50;;
10721;SDS011;5412;59.450;18.124;2023-09-07T13:40:18;2.30;;;1.20;;
10721;SDS011;5412;59.450;18.124;2023-09-07T13:42:47;2.88;;;1.23;;
10721;SDS011;5412;59.450;18.124;2023-09-07T13:45:13;1.98;;;1.30;;
10721;SDS011;5412;59.450;18.124;2023-09-07T13:47:39;4.47;;;1.30;;
10721;SDS011;5412;59.450;18.124;2023-09-07T13:50:05;4.55;;;1.63;;
10721;SDS011;5412;59.450;18.124;2023-09-07T13:52:31;3.75;;;1.40;;
10721;SDS011;5412;59.450;18.124;2023-09-07T13:54:57;4.07;;;1.48;;
10721;SDS011;5412;59.450;18.124;2023-09-07T13:57:22;1.40;;;1.20;;
10721;SDS011;5412;59.450;18.124;2023-09-07T13:59:48;1.58;;;1.13;;
10721;SDS011;5412;59.450;18.124;2023-09-07T14:02:14;1.60;;;1.17;;
10721;SDS011;5412;59.450;18.124;2023-09-07T14:04:40;3.28;;;1.17;;
10721;SDS011;5412;59.450;18.124;2023-09-07T14:07:06;1.90;;;1.05;;
10721;SDS011;5412;59.450;18.124;2023-09-07T14:09:31;5.75;;;1.95;;
10721;SDS011;5412;59.450;18.124;2023-09-07T14:11:58;1.73;;;1.10;;
10721;SDS011;5412;59.450;18.124;2023-09-07T14:14:27;2.83;;;1.42;;
10721;SDS011;5412;59.450;18.124;2023-09-07T14:16:55;2.70;;;1.02;;
10721;SDS011;5412;59.450;18.124;2023-09-07T14:19:23;3.42;;;1.50;;
10721;SDS011;5412;59.450;18.124;2023-09-07T14:21:59;2.17;;;1.40;;
10721;SDS011;5412;59.450;18.124;2023-09-07T14:24:25;4.53;;;1.52;;
10721;SDS011;5412;59.450;18.124;2023-09-07T14:26:50;1.67;;;1.23;;
10721;SDS011;5412;59.450;18.124;2023-09-07T14:29:16;4.78;;;1.00;;
10721;SDS011;5412;59.450;18.124;2023-09-07T14:31:42;1.77;;;1.20;;
10721;SDS011;5412;59.450;18.124;2023-09-07T14:34:09;2.83;;;1.30;;
10721;SDS011;5412;59.450;18.124;2023-09-07T14:36:36;2.00;;;1.20;;
10721;SDS011;5412;59.450;18.124;2023-09-07T14:39:01;1.65;;;1.05;;
10721;SDS011;5412;59.450;18.124;2023-09-07T14:41:28;2.60;;;1.33;;
10721;SDS011;5412;59.450;18.124;2023-09-07T14:43:55;2.72;;;1.30;;
10721;SDS011;5412;59.450;18.124;2023-09-07T14:46:21;2.53;;;0.95;;
10721;SDS011;5412;59.450;18.124;2023-09-07T14:48:50;3.10;;;1.40;;